sensor_id;sensor_type;location;lat;lon;timestamp;P1;durP1;ratioP1;P2;durP2;ratioP2
30247;SDS011;17063;50.892;4.702;2023-02-01T00:01:10;15.07;;;4.60;;
30247;SDS011;17063;50.892;4.702;2023-02-01T00:03:37;10.83;;;3.60;;
30247;SDS011;17063;50.892;4.702;2023-02-01T00:06:04;11.43;;;4.30;;
30247;SDS011;17063;50.892;4.702;2023-02-01T00:08:31;14.70;;;4.43;;
30247;SDS011;17063;50.892;4.702;2023-02-01T00:11:02;16.37;;;4.07;;
30247;SDS011;17063;50.892;4.702;2023-02-01T00:13:30;14.67;;;3.50;;
30247;SDS011;17063;50.892;4.702;2023-02-01T00:16:05;19.87;;;4.20;;
30247;SDS011;17063;50.892;4.702;2023-02-01T00:18:33;13.87;;;3.57;;
30247;SDS011;17063;50.892;4.702;2023-02-01T00:21:00;18.83;;;4.13;;
30247;SDS011;17063;50.892;4.702;2023-02-01T00:23:27;16.33;;;3.87;;
30247;SDS011;17063;50.892;4.702;2023-02-01T00:25:54;18.67;;;4.43;;
30247;SDS011;17063;50.892;4.702;2023-02-01T00:28:21;19.43;;;3.60;;
30247;SDS011;17063;50.892;4.702;2023-02-01T00:30:55;18.00;;;4.20;;
30247;SDS011;17063;50.892;4.702;2023-02-01T00:33:23;12.90;;;4.23;;
30247;SDS011;17063;50.892;4.702;2023-02-01T00:35:50;18.30;;;3.93;;
30247;SDS011;17063;50.892;4.702;2023-02-01T00:38:17;17.20;;;4.03;;
30247;SDS011;17063;50.892;4.702;2023-02-01T00:40:44;17.23;;;4.10;;
30247;SDS011;17063;50.892;4.702;2023-02-01T00:43:11;17.83;;;3.83;;
30247;SDS011;17063;50.892;4.702;2023-02-01T00:45:37;23.40;;;4.37;;
30247;SDS011;17063;50.892;4.702;2023-02-01T00:48:04;22.10;;;4.30;;
30247;SDS011;17063;50.892;4.702;2023-02-01T00:50:31;15.67;;;4.07;;
30247;SDS011;17063;50.892;4.702;2023-02-01T00:52:58;14.00;;;3.60;;
30247;SDS011;17063;50.892;4.702;2023-02-01T00:55:26;16.27;;;4.03;;
30247;SDS011;17063;50.892;4.702;2023-02-01T00:57:52;17.07;;;4.23;;
30247;SDS011;17063;50.892;4.702;2023-02-01T01:00:19;23.57;;;3.93;;
30247;SDS011;17063;50.892;4.702;2023-02-01T01:02:46;19.33;;;3.90;;
30247;SDS011;17063;50.892;4.702;2023-02-01T01:05:13;25.00;;;4.63;;
30247;SDS011;17063;50.892;4.702;2023-02-01T01:07:40;25.03;;;4.40;;
30247;SDS011;17063;50.892;4.702;2023-02-01T01:10:07;14.63;;;3.87;;
30247;SDS011;17063;50.892;4.702;2023-02-01T01:12:35;17.60;;;4.67;;
30247;SDS011;17063;50.892;4.702;2023-02-01T01:15:02;16.03;;;3.93;;
30247;SDS011;17063;50.892;4.702;2023-02-01T01:17:30;26.03;;;4.17;;
30247;SDS011;17063;50.892;4.702;2023-02-01T01:19:58;23.03;;;4.27;;
30247;SDS011;17063;50.892;4.702;2023-02-01T01:22:25;20.77;;;4.27;;
30247;SDS011;17063;50.892;4.702;2023-02-01T01:24:52;17.53;;;3.83;;
30247;SDS011;17063;50.892;4.702;2023-02-01T01:27:21;19.53;;;3.77;;
30247;SDS011;17063;50.892;4.702;2023-02-01T01:29:50;15.47;;;3.10;;
30247;SDS011;17063;50.892;4.702;2023-02-01T01:32:17;14.70;;;3.53;;
30247;SDS011;17063;50.892;4.702;2023-02-01T01:34:43;11.77;;;3.47;;
30247;SDS011;17063;50.892;4.702;2023-02-01T01:37:10;16.50;;;3.80;;
30247;SDS011;17063;50.892;4.702;2023-02-01T01:39:37;19.60;;;3.73;;
30247;SDS011;17063;50.892;4.702;2023-02-01T01:42:04;19.50;;;3.90;;
30247;SDS011;17063;50.892;4.702;2023-02-01T01:47:24;12.07;;;2.87;;
30247;SDS011;17063;50.892;4.702;2023-02-01T01:49:52;16.47;;;4.37;;
30247;SDS011;17063;50.892;4.702;2023-02-01T01:52:19;21.20;;;3.80;;
30247;SDS011;17063;50.892;4.702;2023-02-01T01:54:47;14.37;;;3.20;;
30247;SDS011;17063;50.892;4.702;2023-02-01T01:57:32;18.80;;;3.60;;
30247;SDS011;17063;50.892;4.702;2023-02-01T02:00:08;13.77;;;4.40;;
30247;SDS011;17063;50.892;4.702;2023-02-01T02:02:41;15.70;;;3.50;;
30247;SDS011;17063;50.892;4.702;2023-02-01T02:05:10;18.20;;;3.37;;
30247;SDS011;17063;50.892;4.702;2023-02-01T02:07:38;19.83;;;3.40;;
30247;SDS011;17063;50.892;4.702;2023-02-01T02:10:08;19.63;;;3.67;;
30247;SDS011;17063;50.892;4.702;2023-02-01T02:12:38;22.53;;;3.77;;
30247;SDS011;17063;50.892;4.702;2023-02-01T02:15:09;17.97;;;3.43;;
30247;SDS011;17063;50.892;4.702;2023-02-01T02:17:42;15.67;;;4.30;;
30247;SDS011;17063;50.892;4.702;2023-02-01T02:34:57;16.63;;;3.43;;
30247;SDS011;17063;50.892;4.702;2023-02-01T02:37:39;16.77;;;3.10;;
30247;SDS011;17063;50.892;4.702;2023-02-01T02:45:54;16.40;;;3.03;;
30247;SDS011;17063;50.892;4.702;2023-02-01T02:49:20;15.37;;;2.93;;
30247;SDS011;17063;50.892;4.702;2023-02-01T02:51:56;15.43;;;3.00;;
30247;SDS011;17063;50.892;4.702;2023-02-01T02:54:47;18.60;;;3.33;;
30247;SDS011;17063;50.892;4.702;2023-02-01T02:57:20;21.60;;;3.33;;
30247;SDS011;17063;50.892;4.702;2023-02-01T03:00:09;14.90;;;3.20;;
30247;SDS011;17063;50.892;4.702;2023-02-01T03:02:58;17.03;;;2.77;;
30247;SDS011;17063;50.892;4.702;2023-02-01T03:05:45;13.43;;;3.07;;
30247;SDS011;17063;50.892;4.702;2023-02-01T03:08:15;17.43;;;3.17;;
30247;SDS011;17063;50.892;4.702;2023-02-01T03:11:06;21.83;;;3.13;;
30247;SDS011;17063;50.892;4.702;2023-02-01T03:21:41;18.67;;;2.90;;
30247;SDS011;17063;50.892;4.702;2023-02-01T03:24:11;20.97;;;3.27;;
30247;SDS011;17063;50.892;4.702;2023-02-01T03:26:46;22.63;;;3.37;;
30247;SDS011;17063;50.892;4.702;2023-02-01T03:29:16;11.73;;;2.90;;
30247;SDS011;17063;50.892;4.702;2023-02-01T03:31:44;22.43;;;3.47;;
30247;SDS011;17063;50.892;4.702;2023-02-01T03:34:12;14.93;;;2.80;;
30247;SDS011;17063;50.892;4.702;2023-02-01T03:36:42;20.17;;;3.63;;
30247;SDS011;17063;50.892;4.702;2023-02-01T03:39:20;20.07;;;3.30;;
30247;SDS011;17063;50.892;4.702;2023-02-01T03:41:55;16.60;;;2.97;;
30247;SDS011;17063;50.892;4.702;2023-02-01T03:49:43;18.10;;;2.77;;
30247;SDS011;17063;50.892;4.702;2023-02-01T03:52:17;17.40;;;3.07;;
30247;SDS011;17063;50.892;4.702;2023-02-01T03:54:45;17.00;;;3.00;;
30247;SDS011;17063;50.892;4.702;2023-02-01T03:57:13;24.03;;;2.90;;
30247;SDS011;17063;50.892;4.702;2023-02-01T03:59:44;17.27;;;2.63;;
30247;SDS011;17063;50.892;4.702;2023-02-01T04:02:12;10.90;;;2.90;;
30247;SDS011;17063;50.892;4.702;2023-02-01T04:04:39;12.03;;;2.73;;
30247;SDS011;17063;50.892;4.702;2023-02-01T04:07:06;17.53;;;3.33;;
30247;SDS011;17063;50.892;4.702;2023-02-01T04:09:33;13.20;;;3.47;;
30247;SDS011;17063;50.892;4.702;2023-02-01T04:11:59;17.07;;;2.90;;
30247;SDS011;17063;50.892;4.702;2023-02-01T04:14:26;16.43;;;2.97;;
30247;SDS011;17063;50.892;4.702;2023-02-01T04:16:53;16.37;;;3.07;;
30247;SDS011;17063;50.892;4.702;2023-02-01T04:19:20;18.10;;;3.93;;
30247;SDS011;17063;50.892;4.702;2023-02-01T04:21:47;17.03;;;3.10;;
30247;SDS011;17063;50.892;4.702;2023-02-01T04:24:14;21.97;;;3.33;;
30247;SDS011;17063;50.892;4.702;2023-02-01T04:26:41;23.57;;;3.87;;
30247;SDS011;17063;50.892;4.702;2023-02-01T04:29:09;14.97;;;2.97;;
30247;SDS011;17063;50.892;4.702;2023-02-01T04:31:36;22.83;;;3.17;;
30247;SDS011;17063;50.892;4.702;2023-02-01T04:34:03;16.13;;;3.07;;
30247;SDS011;17063;50.892;4.702;2023-02-01T04:36:30;17.70;;;3.47;;
30247;SDS011;17063;50.892;4.702;2023-02-01T04:38:57;17.63;;;3.13;;
30247;SDS011;17063;50.892;4.702;2023-02-01T04:41:23;15.27;;;2.97;;
30247;SDS011;17063;50.892;4.702;2023-02-01T04:43:50;22.67;;;3.10;;
30247;SDS011;17063;50.892;4.702;2023-02-01T04:46:18;17.97;;;3.00;;
30247;SDS011;17063;50.892;4.702;2023-02-01T04:48:45;16.13;;;3.07;;
30247;SDS011;17063;50.892;4.702;2023-02-01T04:51:12;18.47;;;3.77;;
30247;SDS011;17063;50.892;4.702;2023-02-01T04:53:39;19.63;;;3.20;;
30247;SDS011;17063;50.892;4.702;2023-02-01T04:56:06;19.93;;;3.27;;
30247;SDS011;17063;50.892;4.702;2023-02-01T04:58:33;24.90;;;3.33;;
30247;SDS011;17063;50.892;4.702;2023-02-01T05:01:02;13.93;;;2.40;;
30247;SDS011;17063;50.892;4.702;2023-02-01T05:03:34;25.00;;;3.53;;
30247;SDS011;17063;50.892;4.702;2023-02-01T05:06:01;18.73;;;3.20;;
30247;SDS011;17063;50.892;4.702;2023-02-01T05:08:31;16.57;;;3.17;;
30247;SDS011;17063;50.892;4.702;2023-02-01T05:10:58;21.93;;;3.60;;
30247;SDS011;17063;50.892;4.702;2023-02-01T05:13:25;25.93;;;3.20;;
30247;SDS011;17063;50.892;4.702;2023-02-01T05:16:10;16.10;;;3.00;;
30247;SDS011;17063;50.892;4.702;2023-02-01T05:18:37;12.63;;;2.53;;
30247;SDS011;17063;50.892;4.702;2023-02-01T05:21:04;20.13;;;2.57;;
30247;SDS011;17063;50.892;4.702;2023-02-01T05:23:31;16.97;;;2.90;;
30247;SDS011;17063;50.892;4.702;2023-02-01T05:25:58;18.13;;;3.03;;
30247;SDS011;17063;50.892;4.702;2023-02-01T05:28:27;16.03;;;2.80;;
30247;SDS011;17063;50.892;4.702;2023-02-01T05:30:54;24.80;;;3.20;;
30247;SDS011;17063;50.892;4.702;2023-02-01T05:33:21;22.57;;;3.00;;
30247;SDS011;17063;50.892;4.702;2023-02-01T05:35:47;17.60;;;3.37;;
30247;SDS011;17063;50.892;4.702;2023-02-01T05:38:14;14.47;;;3.50;;
30247;SDS011;17063;50.892;4.702;2023-02-01T05:40:41;14.67;;;3.40;;
30247;SDS011;17063;50.892;4.702;2023-02-01T05:43:08;18.17;;;3.13;;
30247;SDS011;17063;50.892;4.702;2023-02-01T05:45:35;17.50;;;3.13;;
30247;SDS011;17063;50.892;4.702;2023-02-01T05:48:02;17.67;;;2.67;;
30247;SDS011;17063;50.892;4.702;2023-02-01T05:50:29;27.47;;;3.90;;
30247;SDS011;17063;50.892;4.702;2023-02-01T05:52:56;21.20;;;2.93;;
30247;SDS011;17063;50.892;4.702;2023-02-01T05:55:23;15.67;;;3.47;;
30247;SDS011;17063;50.892;4.702;2023-02-01T05:57:49;9.00;;;2.50;;
30247;SDS011;17063;50.892;4.702;2023-02-01T06:00:16;14.20;;;2.73;;
30247;SDS011;17063;50.892;4.702;2023-02-01T06:02:46;21.47;;;3.10;;
30247;SDS011;17063;50.892;4.702;2023-02-01T06:05:12;15.43;;;2.50;;
30247;SDS011;17063;50.892;4.702;2023-02-01T06:07:39;17.33;;;2.83;;
30247;SDS011;17063;50.892;4.702;2023-02-01T06:10:06;22.30;;;2.90;;
30247;SDS011;17063;50.892;4.702;2023-02-01T06:12:33;19.60;;;3.00;;
30247;SDS011;17063;50.892;4.702;2023-02-01T06:15:00;16.90;;;3.10;;
30247;SDS011;17063;50.892;4.702;2023-02-01T06:17:27;17.87;;;4.40;;
30247;SDS011;17063;50.892;4.702;2023-02-01T06:19:54;17.87;;;2.73;;
30247;SDS011;17063;50.892;4.702;2023-02-01T06:22:20;19.73;;;3.37;;
30247;SDS011;17063;50.892;4.702;2023-02-01T06:24:48;22.10;;;3.77;;
30247;SDS011;17063;50.892;4.702;2023-02-01T06:27:15;16.30;;;2.80;;
30247;SDS011;17063;50.892;4.702;2023-02-01T06:29:42;23.80;;;3.37;;
30247;SDS011;17063;50.892;4.702;2023-02-01T06:32:09;11.57;;;2.47;;
30247;SDS011;17063;50.892;4.702;2023-02-01T06:34:37;18.57;;;3.37;;
30247;SDS011;17063;50.892;4.702;2023-02-01T06:37:05;14.90;;;2.90;;
30247;SDS011;17063;50.892;4.702;2023-02-01T06:39:32;11.10;;;2.37;;
30247;SDS011;17063;50.892;4.702;2023-02-01T06:41:59;19.03;;;3.23;;
30247;SDS011;17063;50.892;4.702;2023-02-01T06:44:26;18.93;;;3.10;;
30247;SDS011;17063;50.892;4.702;2023-02-01T06:46:53;16.20;;;2.90;;
30247;SDS011;17063;50.892;4.702;2023-02-01T06:49:21;20.73;;;3.37;;
30247;SDS011;17063;50.892;4.702;2023-02-01T06:51:48;16.37;;;2.93;;
30247;SDS011;17063;50.892;4.702;2023-02-01T06:54:15;14.70;;;2.67;;
30247;SDS011;17063;50.892;4.702;2023-02-01T06:56:41;15.63;;;2.97;;
30247;SDS011;17063;50.892;4.702;2023-02-01T06:59:11;13.90;;;2.60;;
30247;SDS011;17063;50.892;4.702;2023-02-01T07:01:38;16.77;;;3.47;;
30247;SDS011;17063;50.892;4.702;2023-02-01T07:04:05;22.10;;;3.07;;
30247;SDS011;17063;50.892;4.702;2023-02-01T07:06:32;17.80;;;2.90;;
30247;SDS011;17063;50.892;4.702;2023-02-01T07:08:58;17.73;;;2.73;;
30247;SDS011;17063;50.892;4.702;2023-02-01T07:11:26;23.67;;;3.93;;
30247;SDS011;17063;50.892;4.702;2023-02-01T07:13:54;21.03;;;3.60;;
30247;SDS011;17063;50.892;4.702;2023-02-01T07:16:21;17.50;;;2.93;;
30247;SDS011;17063;50.892;4.702;2023-02-01T07:18:49;17.70;;;3.47;;
30247;SDS011;17063;50.892;4.702;2023-02-01T07:21:16;14.50;;;3.90;;
30247;SDS011;17063;50.892;4.702;2023-02-01T07:23:43;13.60;;;2.50;;
30247;SDS011;17063;50.892;4.702;2023-02-01T07:26:10;21.63;;;4.07;;
30247;SDS011;17063;50.892;4.702;2023-02-01T07:28:39;16.80;;;2.83;;
30247;SDS011;17063;50.892;4.702;2023-02-01T07:31:11;19.20;;;3.83;;
30247;SDS011;17063;50.892;4.702;2023-02-01T07:33:41;18.37;;;3.27;;
30247;SDS011;17063;50.892;4.702;2023-02-01T07:36:10;17.07;;;3.00;;
30247;SDS011;17063;50.892;4.702;2023-02-01T07:38:38;21.77;;;3.07;;
30247;SDS011;17063;50.892;4.702;2023-02-01T07:41:06;15.77;;;2.87;;
30247;SDS011;17063;50.892;4.702;2023-02-01T07:43:33;18.27;;;2.77;;
30247;SDS011;17063;50.892;4.702;2023-02-01T07:46:04;21.50;;;3.20;;
30247;SDS011;17063;50.892;4.702;2023-02-01T07:48:32;15.40;;;3.33;;
30247;SDS011;17063;50.892;4.702;2023-02-01T07:51:01;19.20;;;3.60;;
30247;SDS011;17063;50.892;4.702;2023-02-01T07:53:33;17.47;;;2.90;;
30247;SDS011;17063;50.892;4.702;2023-02-01T07:56:02;24.53;;;3.83;;
30247;SDS011;17063;50.892;4.702;2023-02-01T07:58:29;14.67;;;2.77;;
30247;SDS011;17063;50.892;4.702;2023-02-01T08:00:56;10.83;;;2.63;;
30247;SDS011;17063;50.892;4.702;2023-02-01T08:03:42;15.33;;;3.00;;
30247;SDS011;17063;50.892;4.702;2023-02-01T08:06:09;15.37;;;2.73;;
30247;SDS011;17063;50.892;4.702;2023-02-01T08:08:35;10.87;;;3.20;;
30247;SDS011;17063;50.892;4.702;2023-02-01T08:11:03;14.13;;;2.97;;
30247;SDS011;17063;50.892;4.702;2023-02-01T08:13:32;13.90;;;3.03;;
30247;SDS011;17063;50.892;4.702;2023-02-01T08:16:03;13.27;;;3.33;;
30247;SDS011;17063;50.892;4.702;2023-02-01T08:18:31;18.47;;;2.73;;
30247;SDS011;17063;50.892;4.702;2023-02-01T08:21:03;22.53;;;2.77;;
30247;SDS011;17063;50.892;4.702;2023-02-01T08:23:34;21.57;;;3.23;;
30247;SDS011;17063;50.892;4.702;2023-02-01T08:26:18;21.63;;;3.87;;
30247;SDS011;17063;50.892;4.702;2023-02-01T08:28:49;18.60;;;3.00;;
30247;SDS011;17063;50.892;4.702;2023-02-01T08:31:18;13.43;;;2.87;;
30247;SDS011;17063;50.892;4.702;2023-02-01T08:33:54;13.27;;;3.27;;
30247;SDS011;17063;50.892;4.702;2023-02-01T08:36:23;11.50;;;2.90;;
30247;SDS011;17063;50.892;4.702;2023-02-01T08:38:51;15.30;;;2.97;;
30247;SDS011;17063;50.892;4.702;2023-02-01T08:41:19;16.17;;;2.73;;
30247;SDS011;17063;50.892;4.702;2023-02-01T08:43:47;19.97;;;2.83;;
30247;SDS011;17063;50.892;4.702;2023-02-01T08:46:14;20.63;;;3.27;;
30247;SDS011;17063;50.892;4.702;2023-02-01T08:48:42;16.13;;;2.90;;
30247;SDS011;17063;50.892;4.702;2023-02-01T08:51:09;22.67;;;3.97;;
30247;SDS011;17063;50.892;4.702;2023-02-01T08:53:38;14.57;;;2.70;;
30247;SDS011;17063;50.892;4.702;2023-02-01T08:56:08;9.33;;;3.57;;
30247;SDS011;17063;50.892;4.702;2023-02-01T08:58:35;12.73;;;2.70;;
30247;SDS011;17063;50.892;4.702;2023-02-01T09:01:08;17.80;;;3.53;;
30247;SDS011;17063;50.892;4.702;2023-02-01T09:03:38;18.80;;;3.57;;
30247;SDS011;17063;50.892;4.702;2023-02-01T09:06:06;21.37;;;3.30;;
30247;SDS011;17063;50.892;4.702;2023-02-01T09:08:35;21.67;;;3.20;;
30247;SDS011;17063;50.892;4.702;2023-02-01T09:11:04;16.60;;;4.33;;
30247;SDS011;17063;50.892;4.702;2023-02-01T09:13:33;18.83;;;3.20;;
30247;SDS011;17063;50.892;4.702;2023-02-01T09:16:02;16.23;;;2.80;;
30247;SDS011;17063;50.892;4.702;2023-02-01T09:18:30;21.00;;;3.80;;
30247;SDS011;17063;50.892;4.702;2023-02-01T09:20:57;14.33;;;2.47;;
30247;SDS011;17063;50.892;4.702;2023-02-01T09:23:23;17.67;;;3.40;;
30247;SDS011;17063;50.892;4.702;2023-02-01T09:25:51;15.83;;;3.23;;
30247;SDS011;17063;50.892;4.702;2023-02-01T09:28:19;17.47;;;3.73;;
30247;SDS011;17063;50.892;4.702;2023-02-01T09:30:46;15.60;;;3.20;;
30247;SDS011;17063;50.892;4.702;2023-02-01T09:33:13;14.83;;;2.83;;
30247;SDS011;17063;50.892;4.702;2023-02-01T09:35:40;24.77;;;2.97;;
30247;SDS011;17063;50.892;4.702;2023-02-01T09:38:07;16.70;;;2.67;;
30247;SDS011;17063;50.892;4.702;2023-02-01T09:40:34;16.77;;;3.30;;
30247;SDS011;17063;50.892;4.702;2023-02-01T09:48:17;24.00;;;3.50;;
30247;SDS011;17063;50.892;4.702;2023-02-01T09:50:48;15.67;;;3.27;;
30247;SDS011;17063;50.892;4.702;2023-02-01T09:53:20;16.33;;;3.00;;
30247;SDS011;17063;50.892;4.702;2023-02-01T09:55:49;7.90;;;2.47;;
30247;SDS011;17063;50.892;4.702;2023-02-01T10:01:08;18.47;;;3.37;;
30247;SDS011;17063;50.892;4.702;2023-02-01T10:03:41;24.40;;;3.33;;
30247;SDS011;17063;50.892;4.702;2023-02-01T10:09:01;19.47;;;2.60;;
30247;SDS011;17063;50.892;4.702;2023-02-01T10:14:59;18.33;;;2.77;;
30247;SDS011;17063;50.892;4.702;2023-02-01T10:17:49;12.27;;;2.87;;
30247;SDS011;17063;50.892;4.702;2023-02-01T10:26:45;27.13;;;3.20;;
30247;SDS011;17063;50.892;4.702;2023-02-01T10:29:18;23.63;;;3.10;;
30247;SDS011;17063;50.892;4.702;2023-02-01T10:31:46;21.37;;;2.63;;
30247;SDS011;17063;50.892;4.702;2023-02-01T10:36:53;17.77;;;2.60;;
30247;SDS011;17063;50.892;4.702;2023-02-01T10:39:22;17.57;;;3.17;;
30247;SDS011;17063;50.892;4.702;2023-02-01T10:41:49;16.20;;;2.67;;
30247;SDS011;17063;50.892;4.702;2023-02-01T10:44:20;17.53;;;2.90;;
30247;SDS011;17063;50.892;4.702;2023-02-01T10:46:50;12.07;;;2.40;;
30247;SDS011;17063;50.892;4.702;2023-02-01T10:49:41;11.27;;;2.50;;
30247;SDS011;17063;50.892;4.702;2023-02-01T10:52:12;14.80;;;2.63;;
30247;SDS011;17063;50.892;4.702;2023-02-01T10:54:42;15.97;;;2.87;;
30247;SDS011;17063;50.892;4.702;2023-02-01T10:57:10;16.10;;;2.37;;
30247;SDS011;17063;50.892;4.702;2023-02-01T10:59:46;12.13;;;2.50;;
30247;SDS011;17063;50.892;4.702;2023-02-01T11:02:16;22.37;;;3.87;;
30247;SDS011;17063;50.892;4.702;2023-02-01T11:04:44;16.93;;;3.00;;
30247;SDS011;17063;50.892;4.702;2023-02-01T11:09:49;13.70;;;2.83;;
30247;SDS011;17063;50.892;4.702;2023-02-01T11:12:25;12.57;;;2.60;;
30247;SDS011;17063;50.892;4.702;2023-02-01T11:14:56;13.37;;;2.90;;
30247;SDS011;17063;50.892;4.702;2023-02-01T11:17:32;14.90;;;2.57;;
30247;SDS011;17063;50.892;4.702;2023-02-01T11:20:04;8.30;;;2.00;;
30247;SDS011;17063;50.892;4.702;2023-02-01T11:22:35;13.10;;;3.30;;
30247;SDS011;17063;50.892;4.702;2023-02-01T11:25:08;10.77;;;2.47;;
30247;SDS011;17063;50.892;4.702;2023-02-01T11:27:36;11.73;;;2.17;;
30247;SDS011;17063;50.892;4.702;2023-02-01T11:30:27;8.70;;;1.67;;
30247;SDS011;17063;50.892;4.702;2023-02-01T11:33:05;15.90;;;2.63;;
30247;SDS011;17063;50.892;4.702;2023-02-01T11:35:39;13.50;;;2.43;;
30247;SDS011;17063;50.892;4.702;2023-02-01T11:44:02;20.63;;;2.43;;
30247;SDS011;17063;50.892;4.702;2023-02-01T11:46:42;14.13;;;2.43;;
30247;SDS011;17063;50.892;4.702;2023-02-01T11:49:25;15.07;;;2.10;;
30247;SDS011;17063;50.892;4.702;2023-02-01T12:00:15;17.77;;;2.10;;
30247;SDS011;17063;50.892;4.702;2023-02-01T12:14:54;13.83;;;2.30;;
30247;SDS011;17063;50.892;4.702;2023-02-01T12:17:42;14.00;;;2.70;;
30247;SDS011;17063;50.892;4.702;2023-02-01T12:34:44;8.43;;;1.80;;
30247;SDS011;17063;50.892;4.702;2023-02-01T12:40:32;12.20;;;1.97;;
30247;SDS011;17063;50.892;4.702;2023-02-01T12:43:12;7.73;;;2.00;;
30247;SDS011;17063;50.892;4.702;2023-02-01T12:45:51;7.90;;;1.93;;
30247;SDS011;17063;50.892;4.702;2023-02-01T12:48:29;8.63;;;1.63;;
30247;SDS011;17063;50.892;4.702;2023-02-01T12:51:12;11.80;;;2.00;;
30247;SDS011;17063;50.892;4.702;2023-02-01T12:59:04;8.73;;;1.90;;
30247;SDS011;17063;50.892;4.702;2023-02-01T13:06:45;9.07;;;1.80;;
30247;SDS011;17063;50.892;4.702;2023-02-01T13:11:57;10.63;;;1.73;;
30247;SDS011;17063;50.892;4.702;2023-02-01T13:14:35;10.27;;;1.77;;
30247;SDS011;17063;50.892;4.702;2023-02-01T13:17:26;19.03;;;3.20;;
30247;SDS011;17063;50.892;4.702;2023-02-01T13:22:37;7.77;;;1.87;;
30247;SDS011;17063;50.892;4.702;2023-02-01T13:27:36;12.37;;;1.77;;
30247;SDS011;17063;50.892;4.702;2023-02-01T13:30:10;7.77;;;1.97;;
30247;SDS011;17063;50.892;4.702;2023-02-01T13:41:39;12.00;;;1.77;;
30247;SDS011;17063;50.892;4.702;2023-02-01T13:44:14;12.23;;;1.80;;
30247;SDS011;17063;50.892;4.702;2023-02-01T13:46:46;7.00;;;1.60;;
30247;SDS011;17063;50.892;4.702;2023-02-01T13:49:21;11.73;;;2.00;;
30247;SDS011;17063;50.892;4.702;2023-02-01T13:51:51;7.40;;;1.40;;
30247;SDS011;17063;50.892;4.702;2023-02-01T13:54:27;8.20;;;1.73;;
30247;SDS011;17063;50.892;4.702;2023-02-01T13:56:59;3.43;;;1.30;;
30247;SDS011;17063;50.892;4.702;2023-02-01T14:05:08;9.00;;;1.63;;
30247;SDS011;17063;50.892;4.702;2023-02-01T14:07:36;10.63;;;2.90;;
30247;SDS011;17063;50.892;4.702;2023-02-01T14:13:42;12.67;;;2.20;;
30247;SDS011;17063;50.892;4.702;2023-02-01T14:24:01;11.37;;;1.80;;
30247;SDS011;17063;50.892;4.702;2023-02-01T14:34:40;12.83;;;2.33;;
30247;SDS011;17063;50.892;4.702;2023-02-01T14:37:23;9.03;;;2.30;;
30247;SDS011;17063;50.892;4.702;2023-02-01T14:47:55;15.47;;;2.93;;
30247;SDS011;17063;50.892;4.702;2023-02-01T14:50:38;9.80;;;1.90;;
30247;SDS011;17063;50.892;4.702;2023-02-01T14:58:27;5.07;;;1.60;;
30247;SDS011;17063;50.892;4.702;2023-02-01T15:01:01;11.80;;;2.70;;
30247;SDS011;17063;50.892;4.702;2023-02-01T15:06:13;14.57;;;2.23;;
30247;SDS011;17063;50.892;4.702;2023-02-01T15:08:49;10.30;;;1.87;;
30247;SDS011;17063;50.892;4.702;2023-02-01T15:11:16;7.93;;;1.57;;
30247;SDS011;17063;50.892;4.702;2023-02-01T15:13:50;10.60;;;2.00;;
30247;SDS011;17063;50.892;4.702;2023-02-01T15:16:22;11.10;;;2.70;;
30247;SDS011;17063;50.892;4.702;2023-02-01T15:19:06;12.40;;;2.50;;
30247;SDS011;17063;50.892;4.702;2023-02-01T15:21:43;7.33;;;1.83;;
30247;SDS011;17063;50.892;4.702;2023-02-01T15:24:13;8.00;;;2.13;;
30247;SDS011;17063;50.892;4.702;2023-02-01T15:26:53;9.30;;;2.00;;
30247;SDS011;17063;50.892;4.702;2023-02-01T15:29:21;8.73;;;2.03;;
30247;SDS011;17063;50.892;4.702;2023-02-01T15:31:52;11.77;;;1.90;;
30247;SDS011;17063;50.892;4.702;2023-02-01T15:34:19;6.97;;;2.20;;
30247;SDS011;17063;50.892;4.702;2023-02-01T15:36:47;13.57;;;3.03;;
30247;SDS011;17063;50.892;4.702;2023-02-01T15:39:28;12.73;;;2.20;;
30247;SDS011;17063;50.892;4.702;2023-02-01T15:41:59;12.17;;;2.00;;
30247;SDS011;17063;50.892;4.702;2023-02-01T15:44:37;15.07;;;2.40;;
30247;SDS011;17063;50.892;4.702;2023-02-01T15:49:55;14.77;;;2.53;;
30247;SDS011;17063;50.892;4.702;2023-02-01T15:52:24;10.93;;;2.10;;
30247;SDS011;17063;50.892;4.702;2023-02-01T15:54:55;18.43;;;2.23;;
30247;SDS011;17063;50.892;4.702;2023-02-01T15:57:29;9.67;;;2.00;;
30247;SDS011;17063;50.892;4.702;2023-02-01T16:00:04;11.40;;;2.60;;
30247;SDS011;17063;50.892;4.702;2023-02-01T16:02:51;8.73;;;2.57;;
30247;SDS011;17063;50.892;4.702;2023-02-01T16:05:30;9.33;;;2.33;;
30247;SDS011;17063;50.892;4.702;2023-02-01T16:08:03;14.10;;;2.30;;
30247;SDS011;17063;50.892;4.702;2023-02-01T16:10:38;14.80;;;3.17;;
30247;SDS011;17063;50.892;4.702;2023-02-01T16:13:09;13.67;;;2.63;;
30247;SDS011;17063;50.892;4.702;2023-02-01T16:15:36;6.90;;;2.07;;
30247;SDS011;17063;50.892;4.702;2023-02-01T16:18:03;12.53;;;2.80;;
30247;SDS011;17063;50.892;4.702;2023-02-01T16:20:30;14.27;;;2.80;;
30247;SDS011;17063;50.892;4.702;2023-02-01T16:22:57;7.60;;;2.80;;
30247;SDS011;17063;50.892;4.702;2023-02-01T16:25:24;8.43;;;2.67;;
30247;SDS011;17063;50.892;4.702;2023-02-01T16:27:51;12.80;;;2.30;;
30247;SDS011;17063;50.892;4.702;2023-02-01T16:30:18;17.60;;;2.90;;
30247;SDS011;17063;50.892;4.702;2023-02-01T16:32:55;10.20;;;2.20;;
30247;SDS011;17063;50.892;4.702;2023-02-01T16:35:33;15.37;;;2.93;;
30247;SDS011;17063;50.892;4.702;2023-02-01T16:38:11;11.80;;;2.40;;
30247;SDS011;17063;50.892;4.702;2023-02-01T16:40:40;16.07;;;2.20;;
30247;SDS011;17063;50.892;4.702;2023-02-01T16:43:17;14.77;;;2.37;;
30247;SDS011;17063;50.892;4.702;2023-02-01T16:45:47;14.60;;;2.60;;
30247;SDS011;17063;50.892;4.702;2023-02-01T16:48:23;11.17;;;2.70;;
30247;SDS011;17063;50.892;4.702;2023-02-01T16:50:53;12.90;;;2.33;;
30247;SDS011;17063;50.892;4.702;2023-02-01T16:53:25;16.77;;;2.70;;
30247;SDS011;17063;50.892;4.702;2023-02-01T16:55:54;12.13;;;2.60;;
30247;SDS011;17063;50.892;4.702;2023-02-01T16:58:20;15.07;;;2.73;;
30247;SDS011;17063;50.892;4.702;2023-02-01T17:00:47;17.87;;;2.97;;
30247;SDS011;17063;50.892;4.702;2023-02-01T17:03:15;22.67;;;3.10;;
30247;SDS011;17063;50.892;4.702;2023-02-01T17:05:46;12.60;;;2.30;;
30247;SDS011;17063;50.892;4.702;2023-02-01T17:08:18;14.70;;;2.60;;
30247;SDS011;17063;50.892;4.702;2023-02-01T17:10:47;14.37;;;2.63;;
30247;SDS011;17063;50.892;4.702;2023-02-01T17:13:15;15.23;;;2.80;;
30247;SDS011;17063;50.892;4.702;2023-02-01T17:15:45;13.93;;;2.60;;
30247;SDS011;17063;50.892;4.702;2023-02-01T17:18:16;16.77;;;2.70;;
30247;SDS011;17063;50.892;4.702;2023-02-01T17:20:43;11.60;;;2.60;;
30247;SDS011;17063;50.892;4.702;2023-02-01T17:23:10;15.50;;;2.73;;
30247;SDS011;17063;50.892;4.702;2023-02-01T17:25:37;19.67;;;2.80;;
30247;SDS011;17063;50.892;4.702;2023-02-01T17:28:04;20.83;;;2.30;;
30247;SDS011;17063;50.892;4.702;2023-02-01T17:30:31;12.20;;;2.90;;
30247;SDS011;17063;50.892;4.702;2023-02-01T17:32:58;11.70;;;3.17;;
30247;SDS011;17063;50.892;4.702;2023-02-01T17:35:46;11.03;;;2.50;;
30247;SDS011;17063;50.892;4.702;2023-02-01T17:38:13;15.53;;;2.60;;
30247;SDS011;17063;50.892;4.702;2023-02-01T17:40:40;15.57;;;2.97;;
30247;SDS011;17063;50.892;4.702;2023-02-01T17:43:10;20.63;;;3.50;;
30247;SDS011;17063;50.892;4.702;2023-02-01T17:45:40;9.73;;;2.20;;
30247;SDS011;17063;50.892;4.702;2023-02-01T17:48:15;19.50;;;2.43;;
30247;SDS011;17063;50.892;4.702;2023-02-01T17:50:43;17.87;;;3.63;;
30247;SDS011;17063;50.892;4.702;2023-02-01T17:53:10;18.40;;;3.20;;